createdAt,value
2023-02-15T00:00:02.516Z,25.90
2023-02-15T00:02:32.014Z,25.25
2023-02-15T00:04:58.364Z,25.80
2023-02-15T00:07:24.778Z,25.85
2023-02-15T00:09:51.132Z,24.77
2023-02-15T00:12:17.808Z,26.50
2023-02-15T00:14:44.519Z,27.65
2023-02-15T00:17:11.349Z,26.15
2023-02-15T00:19:37.807Z,25.70
2023-02-15T00:22:04.224Z,26.52
2023-02-15T00:24:30.579Z,27.15
2023-02-15T00:26:56.965Z,26.60
2023-02-15T00:29:23.487Z,26.67
2023-02-15T00:31:50.520Z,27.00
2023-02-15T00:34:22.095Z,29.42
2023-02-15T00:36:48.769Z,26.17
2023-02-15T00:39:16.794Z,26.13
2023-02-15T00:41:44.407Z,29.58
2023-02-15T00:44:11.783Z,28.38
2023-02-15T00:46:38.551Z,28.92
2023-02-15T00:49:05.723Z,29.60
2023-02-15T00:51:32.845Z,26.38
2023-02-15T00:53:59.221Z,28.25
2023-02-15T00:56:25.659Z,28.08
2023-02-15T00:58:52.115Z,29.67
2023-02-15T01:01:20.647Z,26.65
2023-02-15T01:03:47.481Z,27.30
2023-02-15T01:06:15.375Z,28.60
2023-02-15T01:08:43.674Z,29.23
2023-02-15T01:11:13.124Z,26.23
2023-02-15T01:13:42.439Z,29.10
2023-02-15T01:16:09.356Z,27.35
2023-02-15T01:18:36.562Z,26.15
2023-02-15T01:21:20.303Z,26.65
2023-02-15T01:23:47.050Z,26.95
2023-02-15T01:26:14.616Z,27.60
2023-02-15T01:28:43.482Z,27.98
2023-02-15T01:31:13.346Z,28.67
2023-02-15T01:33:40.013Z,29.33
2023-02-15T01:36:07.093Z,27.50
2023-02-15T01:38:35.037Z,27.90
2023-02-15T01:41:20.099Z,25.58
2023-02-15T01:43:58.406Z,26.35
2023-02-15T01:46:50.958Z,28.30
2023-02-15T01:49:20.415Z,25.63
2023-02-15T01:51:49.634Z,24.33
2023-02-15T01:54:22.473Z,25.20
2023-02-15T01:56:49.351Z,27.30
2023-02-15T01:59:22.543Z,25.40
2023-02-15T02:01:51.132Z,25.00
2023-02-15T02:04:20.752Z,26.42
2023-02-15T02:06:49.713Z,26.48
2023-02-15T02:09:16.310Z,26.58
2023-02-15T02:11:45.751Z,27.25
2023-02-15T02:14:13.378Z,25.20
2023-02-15T02:17:12.834Z,26.42
2023-02-15T02:20:13.929Z,27.77
2023-02-15T02:22:52.546Z,23.92
2023-02-15T02:25:45.446Z,25.58
2023-02-15T02:28:51.782Z,27.08
2023-02-15T02:31:36.688Z,24.20
2023-02-15T02:34:10.859Z,24.95
2023-02-15T02:36:59.096Z,24.88
2023-02-15T02:40:04.697Z,22.42
2023-02-15T02:42:39.788Z,24.35
2023-02-15T02:45:10.148Z,26.58
2023-02-15T02:47:42.713Z,26.38
2023-02-15T02:50:14.612Z,21.92
2023-02-15T02:52:44.200Z,24.53
2023-02-15T02:55:35.554Z,24.90
2023-02-15T02:58:15.335Z,23.33
2023-02-15T03:01:10.144Z,23.15
2023-02-15T03:04:01.977Z,25.55
2023-02-15T03:06:47.868Z,25.38
2023-02-15T03:09:42.485Z,24.20
2023-02-15T03:12:16.928Z,25.83
2023-02-15T03:14:51.129Z,23.55
2023-02-15T03:17:20.657Z,22.73
2023-02-15T03:19:51.005Z,24.58
2023-02-15T03:22:23.723Z,20.98
2023-02-15T03:24:57.521Z,24.40
2023-02-15T03:27:28.757Z,21.52
2023-02-15T03:29:58.975Z,23.10
2023-02-15T03:32:28.158Z,22.27
2023-02-15T03:34:55.660Z,22.83
2023-02-15T03:37:31.481Z,23.88
2023-02-15T03:40:23.745Z,23.55
2023-02-15T03:42:59.501Z,23.20
2023-02-15T03:45:29.401Z,24.67
2023-02-15T03:47:58.731Z,25.30
2023-02-15T03:50:49.019Z,23.77
2023-02-15T03:53:20.608Z,24.25
2023-02-15T03:55:50.088Z,24.27
2023-02-15T03:58:34.912Z,28.00
2023-02-15T04:01:30.016Z,26.33
2023-02-15T04:04:02.095Z,25.23
2023-02-15T04:06:28.542Z,24.42
2023-02-15T04:09:13.524Z,26.52
2023-02-15T04:11:40.000Z,25.23
2023-02-15T04:14:25.033Z,27.17
2023-02-15T04:16:51.482Z,26.05
2023-02-15T04:19:36.367Z,25.13
2023-02-15T04:22:21.254Z,25.77
2023-02-15T04:25:05.995Z,26.27
2023-02-15T04:27:32.413Z,24.38
2023-02-15T04:29:58.816Z,25.38
2023-02-15T04:32:25.272Z,24.42
2023-02-15T04:34:51.630Z,27.70
2023-02-15T04:37:18.012Z,25.40
2023-02-15T04:39:44.351Z,24.80
2023-02-15T04:42:10.797Z,25.13
2023-02-15T04:44:37.182Z,26.30
2023-02-15T04:47:03.661Z,24.48
2023-02-15T04:49:30.103Z,26.58
2023-02-15T04:51:56.532Z,28.63
2023-02-15T04:54:22.985Z,25.27
2023-02-15T04:56:49.382Z,25.88
2023-02-15T04:59:16.100Z,26.67
2023-02-15T05:01:42.682Z,28.90
2023-02-15T05:04:10.069Z,27.38
2023-02-15T05:06:36.493Z,27.75
2023-02-15T05:09:03.055Z,25.50
2023-02-15T05:11:29.483Z,25.52
2023-02-15T05:13:55.899Z,25.58
2023-02-15T05:16:22.487Z,26.35
2023-02-15T05:18:48.903Z,26.00
2023-02-15T05:21:17.343Z,25.02
2023-02-15T05:23:43.747Z,26.83
2023-02-15T05:26:31.816Z,26.15
2023-02-15T05:28:58.182Z,26.48
2023-02-15T05:31:24.777Z,25.63
2023-02-15T05:33:52.318Z,25.15
2023-02-15T05:36:18.680Z,26.85
2023-02-15T05:38:45.149Z,25.38
2023-02-15T05:41:12.035Z,25.30
2023-02-15T05:43:39.298Z,25.65
2023-02-15T05:46:06.479Z,24.25
2023-02-15T05:48:33.919Z,22.10
2023-02-15T05:51:08.623Z,22.73
2023-02-15T05:53:37.637Z,22.23
2023-02-15T05:56:05.700Z,25.10
2023-02-15T05:58:35.256Z,22.35
2023-02-15T06:01:16.214Z,23.65
2023-02-15T06:03:42.712Z,24.35
2023-02-15T06:06:09.489Z,24.02
2023-02-15T06:08:37.158Z,24.63
2023-02-15T06:11:04.532Z,24.73
2023-02-15T06:13:31.488Z,22.60
2023-02-15T06:15:57.933Z,23.15
2023-02-15T06:18:24.385Z,24.48
2023-02-15T06:20:50.837Z,22.80
2023-02-15T06:23:17.744Z,22.95
2023-02-15T06:25:46.508Z,19.85
2023-02-15T06:28:13.962Z,20.48
2023-02-15T06:30:40.509Z,21.15
2023-02-15T06:33:07.003Z,19.67
2023-02-15T06:35:33.595Z,20.63
2023-02-15T06:38:00.029Z,21.40
2023-02-15T06:40:26.394Z,19.67
2023-02-15T06:42:52.773Z,21.17
2023-02-15T06:45:19.168Z,22.63
2023-02-15T06:47:45.566Z,23.42
2023-02-15T06:50:12.295Z,19.42
2023-02-15T06:52:38.935Z,22.35
2023-02-15T06:55:05.904Z,22.27
2023-02-15T06:57:33.250Z,23.80
2023-02-15T07:00:00.282Z,21.00
2023-02-15T07:02:26.738Z,21.63
2023-02-15T07:04:53.097Z,21.70
2023-02-15T07:07:19.672Z,20.38
2023-02-15T07:09:46.066Z,21.83
2023-02-15T07:12:30.972Z,20.98
2023-02-15T07:14:59.052Z,20.58
2023-02-15T07:17:36.838Z,20.17
2023-02-15T07:20:10.509Z,18.92
2023-02-15T07:22:38.041Z,18.80
2023-02-15T07:25:05.661Z,18.40
2023-02-15T07:27:32.801Z,18.02
2023-02-15T07:29:59.757Z,17.98
2023-02-15T07:32:30.036Z,19.50
2023-02-15T07:34:56.605Z,15.77
2023-02-15T07:37:23.130Z,16.15
2023-02-15T07:39:49.667Z,16.92
2023-02-15T07:42:16.075Z,13.82
2023-02-15T07:44:42.499Z,15.00
2023-02-15T07:47:08.873Z,16.30
2023-02-15T07:49:35.304Z,15.80
2023-02-15T07:52:02.598Z,17.45
2023-02-15T07:54:29.114Z,16.38
2023-02-15T07:56:55.484Z,16.83
2023-02-15T07:59:21.870Z,18.00
2023-02-15T08:01:48.513Z,15.65
2023-02-15T08:04:14.918Z,18.50
2023-02-15T08:06:41.321Z,15.57
2023-02-15T08:09:09.451Z,15.98
2023-02-15T08:11:37.790Z,14.20
2023-02-15T08:14:08.330Z,14.93
2023-02-15T08:16:43.837Z,14.82
2023-02-15T08:19:11.738Z,17.08
2023-02-15T08:21:40.847Z,16.60
2023-02-15T08:24:09.658Z,15.23
2023-02-15T08:26:37.484Z,15.15
2023-02-15T08:29:04.344Z,14.95
2023-02-15T08:31:30.835Z,14.82
2023-02-15T08:33:57.857Z,13.60
2023-02-15T08:36:28.564Z,16.77
2023-02-15T08:38:55.478Z,15.30
2023-02-15T08:41:24.897Z,13.68
2023-02-15T08:43:57.271Z,16.08
2023-02-15T08:46:26.053Z,17.02
2023-02-15T08:48:53.050Z,14.35
2023-02-15T08:51:28.376Z,14.68
2023-02-15T08:53:57.303Z,16.33
2023-02-15T08:56:29.609Z,14.20
2023-02-15T08:58:56.953Z,12.73
2023-02-15T09:01:28.345Z,15.32
2023-02-15T09:04:01.140Z,16.50
2023-02-15T09:06:28.575Z,16.73
2023-02-15T09:08:55.933Z,15.98
2023-02-15T09:11:24.513Z,16.63
2023-02-15T09:13:54.254Z,15.70
2023-02-15T09:16:22.063Z,15.82
2023-02-15T09:18:49.457Z,15.88
2023-02-15T09:21:18.264Z,16.33
2023-02-15T09:23:46.420Z,16.48
2023-02-15T09:26:18.755Z,15.05
2023-02-15T09:28:45.605Z,16.33
2023-02-15T09:31:16.026Z,16.52
2023-02-15T09:33:43.871Z,15.82
2023-02-15T09:36:20.089Z,16.08
2023-02-15T09:38:47.731Z,16.38
2023-02-15T09:41:32.268Z,17.15
2023-02-15T09:44:17.462Z,16.08
2023-02-15T09:46:47.035Z,16.80
2023-02-15T09:49:40.541Z,16.98
2023-02-15T09:52:31.126Z,19.45
2023-02-15T09:55:22.138Z,16.92
2023-02-15T09:58:06.851Z,17.05
2023-02-15T10:00:58.400Z,17.75
2023-02-15T10:03:46.507Z,16.67
2023-02-15T10:06:42.666Z,16.98
2023-02-15T10:09:09.053Z,16.92
2023-02-15T10:11:49.979Z,18.20
2023-02-15T10:14:44.685Z,17.05
2023-02-15T10:17:19.392Z,16.60
2023-02-15T10:20:14.219Z,18.45
2023-02-15T10:23:11.502Z,17.80
2023-02-15T10:26:22.022Z,17.42
2023-02-15T10:28:58.038Z,18.42
2023-02-15T10:31:38.293Z,19.80
2023-02-15T10:34:19.925Z,17.48
2023-02-15T10:36:49.689Z,17.90
2023-02-15T10:39:33.164Z,18.63
2023-02-15T10:42:11.849Z,18.77
2023-02-15T10:44:58.972Z,17.55
2023-02-15T10:47:40.166Z,18.00
2023-02-15T10:50:28.054Z,18.25
2023-02-15T10:53:15.037Z,20.73
2023-02-15T10:56:03.582Z,18.30
2023-02-15T10:58:48.459Z,18.95
2023-02-15T11:01:37.797Z,19.42
2023-02-15T11:04:38.470Z,18.48
2023-02-15T11:07:14.382Z,18.95
2023-02-15T11:09:50.349Z,21.42
2023-02-15T11:12:24.902Z,20.55
2023-02-15T11:15:15.667Z,21.83
2023-02-15T11:17:46.341Z,22.20
2023-02-15T11:20:26.285Z,22.77
2023-02-15T11:22:54.331Z,22.17
2023-02-15T11:25:32.199Z,23.23
2023-02-15T11:28:04.486Z,22.95
2023-02-15T11:30:45.302Z,24.23
2023-02-15T11:33:23.211Z,23.88
2023-02-15T11:35:54.528Z,21.63
2023-02-15T11:38:29.668Z,20.27
2023-02-15T11:41:02.464Z,23.77
2023-02-15T11:43:35.143Z,23.67
2023-02-15T11:46:01.744Z,17.90
2023-02-15T11:48:32.122Z,24.52
2023-02-15T11:50:59.578Z,24.60
2023-02-15T11:53:30.110Z,25.83
2023-02-15T11:55:56.986Z,26.23
2023-02-15T11:58:34.932Z,26.38
2023-02-15T12:01:24.356Z,24.23
2023-02-15T12:03:59.241Z,23.40
2023-02-15T12:06:31.019Z,26.08
2023-02-15T12:09:06.542Z,25.38
2023-02-15T12:11:38.713Z,26.15
2023-02-15T12:14:08.668Z,20.75
2023-02-15T12:16:43.471Z,23.13
2023-02-15T12:19:37.965Z,23.50
2023-02-15T12:22:06.942Z,25.60
2023-02-15T12:24:56.299Z,22.33
2023-02-15T12:27:27.417Z,22.92
2023-02-15T12:29:59.530Z,22.98
2023-02-15T12:32:29.929Z,22.38
2023-02-15T12:35:22.713Z,22.98
2023-02-15T12:37:56.061Z,21.27
2023-02-15T12:40:27.079Z,23.50
2023-02-15T12:42:53.517Z,21.83
2023-02-15T12:45:29.880Z,23.05
2023-02-15T12:48:16.702Z,22.80
2023-02-15T12:50:58.258Z,21.90
2023-02-15T12:53:36.622Z,22.52
2023-02-15T12:56:06.886Z,24.17
2023-02-15T12:58:38.675Z,25.13
2023-02-15T13:01:12.314Z,23.00
2023-02-15T13:03:54.554Z,25.83
2023-02-15T13:06:21.682Z,26.23
2023-02-15T13:08:53.769Z,25.08
2023-02-15T13:11:29.746Z,25.90
2023-02-15T13:14:00.979Z,26.27
2023-02-15T13:16:33.184Z,29.05
2023-02-15T13:19:06.942Z,26.98
2023-02-15T13:21:39.583Z,25.70
2023-02-15T13:24:22.851Z,28.45
2023-02-15T13:26:49.931Z,25.80
2023-02-15T13:29:23.387Z,27.38
2023-02-15T13:31:52.386Z,26.10
2023-02-15T13:34:25.925Z,25.67
2023-02-15T13:37:07.488Z,26.27
2023-02-15T13:39:46.588Z,24.92
2023-02-15T13:42:24.176Z,28.55
2023-02-15T13:45:07.135Z,27.70
2023-02-15T13:47:50.191Z,26.83
2023-02-15T13:50:52.107Z,26.05
2023-02-15T13:54:03.825Z,26.63
2023-02-15T13:57:04.587Z,27.00
2023-02-15T14:00:30.085Z,30.17
2023-02-15T14:03:06.088Z,28.77
2023-02-15T14:05:50.107Z,29.30
2023-02-15T14:08:38.035Z,33.17
2023-02-15T14:11:31.993Z,34.30
2023-02-15T14:14:07.275Z,35.40
2023-02-15T14:17:12.614Z,36.58
2023-02-15T14:19:50.624Z,39.80
2023-02-15T14:22:36.262Z,39.63
2023-02-15T14:25:30.123Z,38.10
2023-02-15T14:28:08.931Z,37.63
2023-02-15T14:30:42.143Z,39.03
2023-02-15T14:33:09.896Z,35.97
2023-02-15T14:35:38.068Z,37.97
2023-02-15T14:38:10.529Z,37.13
2023-02-15T14:41:01.769Z,37.35
2023-02-15T14:43:47.569Z,36.90
2023-02-15T14:46:23.295Z,36.60
2023-02-15T14:48:52.846Z,36.58
2023-02-15T14:51:39.429Z,37.90
2023-02-15T14:54:08.317Z,33.85
2023-02-15T14:56:34.761Z,33.70
2023-02-15T14:59:20.433Z,34.63
2023-02-15T15:02:18.834Z,34.53
2023-02-15T15:05:07.895Z,37.25
2023-02-15T15:07:47.323Z,34.38
2023-02-15T15:10:16.740Z,30.05
2023-02-15T15:12:56.376Z,32.28
2023-02-15T15:15:32.033Z,31.92
2023-02-15T15:18:09.586Z,35.72
2023-02-15T15:20:36.051Z,33.42
2023-02-15T15:23:18.767Z,33.50
2023-02-15T15:25:52.697Z,32.20
2023-02-15T15:28:34.587Z,29.60
2023-02-15T15:31:39.659Z,34.75
2023-02-15T15:34:18.396Z,31.35
2023-02-15T15:37:06.427Z,31.88
2023-02-15T15:40:02.285Z,33.47
2023-02-15T15:43:02.939Z,30.45
2023-02-15T15:46:05.260Z,31.17
2023-02-15T15:48:37.413Z,29.67
2023-02-15T15:51:12.180Z,31.90
2023-02-15T15:53:43.213Z,30.25
2023-02-15T15:56:16.285Z,32.17
2023-02-15T15:58:50.984Z,30.17
2023-02-15T16:01:17.548Z,27.80
2023-02-15T16:03:55.941Z,31.13
2023-02-15T16:06:33.150Z,28.65
2023-02-15T16:09:31.059Z,28.90
2023-02-15T16:12:02.315Z,31.13
2023-02-15T16:14:40.447Z,30.30
2023-02-15T16:17:14.216Z,28.23
2023-02-15T16:19:43.603Z,27.70
2023-02-15T16:22:22.439Z,28.92
2023-02-15T16:25:14.976Z,27.00
2023-02-15T16:27:45.488Z,29.40
2023-02-15T16:30:18.086Z,30.58
2023-02-15T16:32:44.515Z,27.52
2023-02-15T16:35:16.376Z,26.08
2023-02-15T16:37:42.870Z,26.58
2023-02-15T16:40:24.585Z,25.10
2023-02-15T16:42:53.439Z,29.73
2023-02-15T16:45:22.857Z,26.60
2023-02-15T16:47:53.618Z,25.42
2023-02-15T16:50:40.708Z,25.35
2023-02-15T16:53:15.239Z,25.10
2023-02-15T16:55:43.285Z,25.08
2023-02-15T16:58:16.709Z,26.08
2023-02-15T17:00:43.957Z,25.45
2023-02-15T17:03:13.308Z,24.25
2023-02-15T17:05:56.489Z,26.13
2023-02-15T17:11:00.680Z,24.45
2023-02-15T17:16:00.486Z,28.00
2023-02-15T17:18:33.664Z,25.73
2023-02-15T17:21:09.670Z,29.75
2023-02-15T17:23:41.989Z,26.85
2023-02-15T17:26:19.586Z,26.38
2023-02-15T17:28:53.339Z,29.13
2023-02-15T17:31:21.510Z,28.02
2023-02-15T17:33:48.847Z,27.90
2023-02-15T17:36:23.123Z,27.27
2023-02-15T17:38:58.441Z,29.10
2023-02-15T17:41:34.956Z,29.50
2023-02-15T17:44:03.655Z,29.23
2023-02-15T17:46:35.396Z,29.20
2023-02-15T17:49:02.785Z,30.10
2023-02-15T17:51:29.215Z,29.95
2023-02-15T17:54:14.425Z,29.50
2023-02-15T17:56:40.794Z,37.58
2023-02-15T17:59:07.338Z,28.73
2023-02-15T18:01:54.582Z,32.58
2023-02-15T18:04:40.249Z,33.38
2023-02-15T18:07:28.307Z,28.65
2023-02-15T18:10:13.491Z,29.75
2023-02-15T18:12:40.743Z,29.60
2023-02-15T18:15:10.817Z,31.70
2023-02-15T18:17:45.501Z,29.90
2023-02-15T18:20:18.063Z,30.77
2023-02-15T18:22:46.283Z,27.00
2023-02-15T18:25:18.270Z,27.50
2023-02-15T18:27:45.157Z,33.23
2023-02-15T18:30:17.730Z,29.25
2023-02-15T18:32:46.127Z,30.15
2023-02-15T18:35:21.174Z,35.10
2023-02-15T18:37:48.060Z,34.22
2023-02-15T18:40:26.346Z,34.85
2023-02-15T18:42:53.322Z,35.90
2023-02-15T18:45:34.963Z,36.72
2023-02-15T18:48:01.472Z,36.53
2023-02-15T18:50:32.867Z,38.47
2023-02-15T18:52:59.245Z,36.55
2023-02-15T18:55:32.855Z,39.90
2023-02-15T18:57:59.580Z,37.13
2023-02-15T19:00:28.697Z,41.28
2023-02-15T19:02:55.676Z,38.30
2023-02-15T19:05:23.419Z,35.53
2023-02-15T19:07:50.556Z,38.35
2023-02-15T19:10:29.404Z,39.97
2023-02-15T19:12:56.574Z,37.53
2023-02-15T19:15:26.028Z,41.33
2023-02-15T19:17:53.256Z,40.20
2023-02-15T19:20:26.510Z,41.40
2023-02-15T19:22:55.586Z,40.75
2023-02-15T19:25:25.029Z,38.10
2023-02-15T19:27:52.200Z,38.38
2023-02-15T19:30:22.937Z,35.70
2023-02-15T19:32:49.414Z,38.72
2023-02-15T19:35:20.031Z,35.47
2023-02-15T19:37:50.352Z,35.50
2023-02-15T19:40:26.070Z,34.95
2023-02-15T19:42:52.930Z,35.83
2023-02-15T19:45:22.149Z,36.97
2023-02-15T19:47:48.529Z,38.90
2023-02-15T19:50:16.863Z,35.60
2023-02-15T19:52:44.004Z,37.83
2023-02-15T19:55:34.300Z,37.38
2023-02-15T19:58:01.736Z,37.65
2023-02-15T20:00:31.171Z,37.92
2023-02-15T20:02:59.154Z,35.75
2023-02-15T20:05:30.357Z,36.22
2023-02-15T20:07:58.056Z,37.40
2023-02-15T20:10:29.976Z,36.92
2023-02-15T20:12:57.103Z,38.42
2023-02-15T20:15:32.000Z,36.67
2023-02-15T20:17:59.986Z,39.10
2023-02-15T20:20:37.842Z,37.75
2023-02-15T20:23:04.396Z,41.47
2023-02-15T20:25:33.883Z,40.00
2023-02-15T20:28:01.666Z,41.58
2023-02-15T20:30:31.380Z,39.53
2023-02-15T20:32:58.089Z,39.33
2023-02-15T20:35:28.497Z,42.50
2023-02-15T20:37:57.131Z,40.55
2023-02-15T20:40:32.332Z,39.42
2023-02-15T20:42:59.207Z,42.75
2023-02-15T20:45:33.033Z,37.42
2023-02-15T20:48:01.689Z,40.17
2023-02-15T20:50:31.076Z,39.53
2023-02-15T20:52:59.639Z,41.55
2023-02-15T20:55:29.619Z,37.55
2023-02-15T20:57:57.147Z,37.92
2023-02-15T21:00:26.835Z,39.60
2023-02-15T21:03:00.906Z,37.22
2023-02-15T21:05:30.674Z,36.28
2023-02-15T21:07:57.553Z,39.38
2023-02-15T21:10:27.486Z,36.40
2023-02-15T21:12:54.328Z,37.13
2023-02-15T21:15:36.047Z,35.00
2023-02-15T21:18:05.837Z,35.38
2023-02-15T21:20:34.994Z,40.20
2023-02-15T21:23:04.614Z,38.78
2023-02-15T21:25:36.243Z,36.92
2023-02-15T21:28:05.252Z,39.45
2023-02-15T21:30:31.745Z,39.63
2023-02-15T21:32:58.131Z,40.30
2023-02-15T21:35:24.573Z,37.03
2023-02-15T21:37:52.838Z,37.20
2023-02-15T21:40:28.576Z,34.45
2023-02-15T21:43:13.704Z,35.70
2023-02-15T21:45:58.288Z,33.28
2023-02-15T21:48:24.627Z,32.33
2023-02-15T21:51:11.276Z,36.03
2023-02-15T21:53:45.810Z,39.20
2023-02-15T21:56:16.193Z,37.90
2023-02-15T21:58:43.126Z,36.55
2023-02-15T22:01:24.818Z,34.75
2023-02-15T22:03:53.005Z,33.45
2023-02-15T22:06:19.470Z,34.40
2023-02-15T22:08:47.858Z,33.03
2023-02-15T22:11:22.426Z,36.28
2023-02-15T22:13:50.291Z,33.00
2023-02-15T22:16:19.356Z,35.40
2023-02-15T22:18:49.615Z,34.60
2023-02-15T22:21:19.425Z,34.45
2023-02-15T22:23:46.931Z,35.97
2023-02-15T22:26:24.061Z,34.65
2023-02-15T22:28:51.108Z,34.70
2023-02-15T22:31:21.044Z,37.20
2023-02-15T22:33:49.896Z,34.95
2023-02-15T22:36:33.202Z,32.85
2023-02-15T22:38:59.814Z,35.30
2023-02-15T22:41:29.392Z,32.83
2023-02-15T22:43:56.640Z,36.00
2023-02-15T22:46:25.075Z,36.33
2023-02-15T22:48:52.263Z,36.15
2023-02-15T22:51:24.168Z,32.97
2023-02-15T22:53:52.279Z,35.45
2023-02-15T22:56:26.791Z,37.10
2023-02-15T22:59:00.884Z,36.00
2023-02-15T23:01:31.616Z,35.65
2023-02-15T23:03:58.121Z,35.83
2023-02-15T23:06:24.677Z,32.30
2023-02-15T23:08:53.205Z,32.22
2023-02-15T23:11:23.671Z,32.95
2023-02-15T23:13:50.277Z,35.42
2023-02-15T23:16:17.729Z,32.80
2023-02-15T23:18:46.664Z,33.75
2023-02-15T23:21:22.098Z,37.53
2023-02-15T23:23:51.637Z,37.67
2023-02-15T23:26:28.977Z,35.50
2023-02-15T23:28:58.220Z,32.92
2023-02-15T23:31:31.257Z,35.42
2023-02-15T23:33:59.290Z,31.15
2023-02-15T23:36:34.295Z,33.85
2023-02-15T23:39:31.332Z,32.45
2023-02-15T23:42:00.970Z,31.98
2023-02-15T23:44:27.957Z,34.00
2023-02-15T23:46:56.385Z,33.78
2023-02-15T23:49:23.584Z,35.67
2023-02-15T23:51:55.778Z,33.25
2023-02-15T23:54:24.653Z,25.45
2023-02-15T23:56:54.402Z,35.33
2023-02-15T23:59:23.783Z,33.92
